createdAt,value
2023-04-02T00:00:33.017Z,79
2023-04-02T00:01:32.982Z,79
2023-04-02T00:02:33.149Z,79
2023-04-02T00:03:32.985Z,79
2023-04-02T00:04:32.965Z,79
2023-04-02T00:05:33.281Z,79
2023-04-02T00:06:33.396Z,79
2023-04-02T00:07:32.912Z,79
2023-04-02T00:08:32.966Z,79
2023-04-02T00:09:32.991Z,79
2023-04-02T00:10:32.993Z,79
2023-04-02T00:11:32.960Z,79
2023-04-02T00:12:32.986Z,79
2023-04-02T00:13:32.952Z,79
2023-04-02T00:14:33.031Z,79
2023-04-02T00:15:33.202Z,78
2023-04-02T00:16:33.075Z,78
2023-04-02T00:17:32.967Z,78
2023-04-02T00:18:33.043Z,79
2023-04-02T00:19:32.870Z,79
2023-04-02T00:20:32.985Z,79
2023-04-02T00:21:32.971Z,79
2023-04-02T00:22:32.954Z,79
2023-04-02T00:23:32.902Z,79
2023-04-02T00:24:32.967Z,79
2023-04-02T00:25:33.360Z,79
2023-04-02T00:26:33.017Z,79
2023-04-02T00:27:32.888Z,79
2023-04-02T00:28:32.950Z,79
2023-04-02T00:29:32.998Z,78
2023-04-02T00:30:32.980Z,78
2023-04-02T00:31:32.891Z,79
2023-04-02T00:32:33.066Z,78
2023-04-02T00:33:32.949Z,78
2023-04-02T00:34:32.976Z,78
2023-04-02T00:35:33.164Z,78
2023-04-02T00:36:32.980Z,78
2023-04-02T00:37:32.941Z,78
2023-04-02T00:38:32.975Z,78
2023-04-02T00:39:32.911Z,78
2023-04-02T00:40:32.994Z,78
2023-04-02T00:41:32.960Z,79
2023-04-02T00:42:32.961Z,79
2023-04-02T00:43:32.992Z,79
2023-04-02T00:44:32.991Z,79
2023-04-02T00:45:33.317Z,79
2023-04-02T00:46:32.963Z,79
2023-04-02T00:47:32.897Z,79
2023-04-02T00:48:32.985Z,79
2023-04-02T00:49:33.034Z,79
2023-04-02T00:50:32.954Z,79
2023-04-02T00:51:32.880Z,79
2023-04-02T00:52:33.002Z,79
2023-04-02T00:53:32.954Z,79
2023-04-02T00:54:32.958Z,79
2023-04-02T00:55:33.157Z,79
2023-04-02T00:56:33.043Z,79
2023-04-02T00:57:32.987Z,79
2023-04-02T00:58:32.951Z,79
2023-04-02T00:59:32.961Z,79
2023-04-02T01:00:32.993Z,79
2023-04-02T01:01:33.085Z,79
2023-04-02T01:02:33.042Z,79
2023-04-02T01:03:33.124Z,79
2023-04-02T01:04:32.974Z,79
2023-04-02T01:05:33.191Z,79
2023-04-02T01:06:32.981Z,79
2023-04-02T01:07:32.896Z,79
2023-04-02T01:08:32.969Z,79
2023-04-02T01:09:32.976Z,79
2023-04-02T01:10:32.974Z,79
2023-04-02T01:11:32.930Z,79
2023-04-02T01:12:32.991Z,79
2023-04-02T01:13:33.009Z,79
2023-04-02T01:14:32.979Z,79
2023-04-02T01:15:33.082Z,79
2023-04-02T01:16:33.080Z,79
2023-04-02T01:17:32.980Z,79
2023-04-02T01:18:32.962Z,79
2023-04-02T01:19:32.852Z,79
2023-04-02T01:20:33.003Z,80
2023-04-02T01:21:32.957Z,80
2023-04-02T01:22:32.939Z,80
2023-04-02T01:23:32.913Z,80
2023-04-02T01:24:32.961Z,80
2023-04-02T01:25:33.220Z,80
2023-04-02T01:26:32.959Z,80
2023-04-02T01:27:32.897Z,80
2023-04-02T01:28:32.990Z,81
2023-04-02T01:29:32.993Z,81
2023-04-02T01:30:32.981Z,81
2023-04-02T01:31:32.910Z,81
2023-04-02T01:32:33.041Z,81
2023-04-02T01:33:32.961Z,81
2023-04-02T01:34:32.996Z,81
2023-04-02T01:35:33.193Z,81
2023-04-02T01:36:32.951Z,81
2023-04-02T01:37:32.959Z,81
2023-04-02T01:38:32.940Z,81
2023-04-02T01:39:32.837Z,81
2023-04-02T01:40:33.089Z,81
2023-04-02T01:41:33.169Z,81
2023-04-02T01:42:33.143Z,81
2023-04-02T01:43:33.035Z,81
2023-04-02T01:44:33.117Z,81
2023-04-02T01:45:33.371Z,81
2023-04-02T01:46:33.173Z,81
2023-04-02T01:47:33.117Z,81
2023-04-02T01:48:33.127Z,82
2023-04-02T01:49:33.092Z,82
2023-04-02T01:50:33.136Z,82
2023-04-02T01:51:33.041Z,82
2023-04-02T01:52:33.160Z,82
2023-04-02T01:53:33.123Z,82
2023-04-02T01:54:33.042Z,82
2023-04-02T01:55:33.350Z,82
2023-04-02T01:56:33.159Z,82
2023-04-02T01:57:33.064Z,82
2023-04-02T01:58:32.953Z,82
2023-04-02T01:59:32.884Z,82
2023-04-02T02:00:32.999Z,82
2023-04-02T02:01:32.961Z,82
2023-04-02T02:02:33.059Z,82
2023-04-02T02:03:32.918Z,82
2023-04-02T02:04:33.040Z,82
2023-04-02T02:05:33.278Z,82
2023-04-02T02:06:32.938Z,82
2023-04-02T02:07:32.891Z,82
2023-04-02T02:08:33.060Z,82
2023-04-02T02:09:32.967Z,82
2023-04-02T02:10:32.978Z,82
2023-04-02T02:11:32.844Z,82
2023-04-02T02:12:32.983Z,82
2023-04-02T02:13:33.027Z,83
2023-04-02T02:14:32.964Z,82
2023-04-02T02:15:33.126Z,82
2023-04-02T02:16:32.964Z,82
2023-04-02T02:17:33.004Z,82
2023-04-02T02:18:32.977Z,82
2023-04-02T02:19:32.888Z,82
2023-04-02T02:20:32.976Z,82
2023-04-02T02:21:32.962Z,83
2023-04-02T02:22:32.971Z,82
2023-04-02T02:23:32.865Z,82
2023-04-02T02:24:32.975Z,82
2023-04-02T02:25:33.270Z,82
2023-04-02T02:26:32.979Z,82
2023-04-02T02:27:32.869Z,82
2023-04-02T02:28:32.943Z,82
2023-04-02T02:29:32.947Z,82
2023-04-02T02:30:33.001Z,82
2023-04-02T02:31:32.930Z,82
2023-04-02T02:32:33.028Z,81
2023-04-02T02:33:32.963Z,82
2023-04-02T02:34:32.945Z,82
2023-04-02T02:35:33.184Z,82
2023-04-02T02:36:32.956Z,82
2023-04-02T02:37:32.968Z,82
2023-04-02T02:38:32.976Z,82
2023-04-02T02:39:32.874Z,82
2023-04-02T02:40:32.954Z,82
2023-04-02T02:41:32.970Z,81
2023-04-02T02:42:32.988Z,81
2023-04-02T02:43:32.886Z,81
2023-04-02T02:44:32.987Z,81
2023-04-02T02:45:33.227Z,81
2023-04-02T02:46:32.978Z,81
2023-04-02T02:47:32.922Z,81
2023-04-02T02:48:32.951Z,81
2023-04-02T02:49:32.960Z,81
2023-04-02T02:50:33.068Z,81
2023-04-02T02:51:32.921Z,81
2023-04-02T02:52:32.945Z,81
2023-04-02T02:53:32.917Z,81
2023-04-02T02:54:32.964Z,81
2023-04-02T02:55:33.326Z,81
2023-04-02T02:56:33.074Z,81
2023-04-02T02:57:33.107Z,81
2023-04-02T02:58:32.959Z,81
2023-04-02T02:59:32.850Z,81
2023-04-02T03:00:33.016Z,81
2023-04-02T03:01:33.003Z,81
2023-04-02T03:02:33.110Z,81
2023-04-02T03:03:33.127Z,81
2023-04-02T03:04:32.952Z,81
2023-04-02T03:05:33.617Z,81
2023-04-02T03:06:32.967Z,81
2023-04-02T03:07:32.866Z,81
2023-04-02T03:08:32.959Z,81
2023-04-02T03:09:32.931Z,81
2023-04-02T03:10:32.947Z,81
2023-04-02T03:11:33.069Z,81
2023-04-02T03:12:32.988Z,81
2023-04-02T03:13:32.982Z,81
2023-04-02T03:14:33.147Z,81
2023-04-02T03:15:33.107Z,81
2023-04-02T03:16:32.951Z,81
2023-04-02T03:17:33.038Z,81
2023-04-02T03:18:33.083Z,81
2023-04-02T03:19:33.041Z,81
2023-04-02T03:20:32.996Z,81
2023-04-02T03:21:32.955Z,81
2023-04-02T03:22:33.038Z,81
2023-04-02T03:23:32.951Z,81
2023-04-02T03:24:33.121Z,81
2023-04-02T03:25:33.438Z,81
2023-04-02T03:26:32.972Z,81
2023-04-02T03:27:32.961Z,81
2023-04-02T03:28:33.109Z,82
2023-04-02T03:29:33.003Z,82
2023-04-02T03:30:33.105Z,82
2023-04-02T03:31:33.120Z,82
2023-04-02T03:32:33.103Z,82
2023-04-02T03:33:32.975Z,82
2023-04-02T03:34:33.022Z,82
2023-04-02T03:35:33.299Z,82
2023-04-02T03:36:32.978Z,82
2023-04-02T03:37:33.132Z,82
2023-04-02T03:38:32.966Z,82
2023-04-02T03:39:32.978Z,82
2023-04-02T03:40:33.084Z,82
2023-04-02T03:41:32.973Z,82
2023-04-02T03:42:33.032Z,82
2023-04-02T03:43:32.955Z,82
2023-04-02T03:44:33.112Z,83
2023-04-02T03:45:33.054Z,83
2023-04-02T03:46:33.009Z,83
2023-04-02T03:47:32.998Z,83
2023-04-02T03:48:33.044Z,83
2023-04-02T03:49:32.950Z,83
2023-04-02T03:50:32.987Z,83
2023-04-02T03:51:32.861Z,83
2023-04-02T03:52:32.974Z,83
2023-04-02T03:53:32.926Z,83
2023-04-02T03:54:32.957Z,83
2023-04-02T03:55:33.113Z,83
2023-04-02T03:56:32.946Z,83
2023-04-02T03:57:33.006Z,83
2023-04-02T03:58:32.930Z,83
2023-04-02T03:59:33.079Z,83
2023-04-02T04:00:32.966Z,84
2023-04-02T04:01:33.072Z,83
2023-04-02T04:02:32.957Z,84
2023-04-02T04:03:32.895Z,83
2023-04-02T04:04:33.105Z,83
2023-04-02T04:05:33.244Z,83
2023-04-02T04:06:32.973Z,83
2023-04-02T04:07:32.892Z,83
2023-04-02T04:08:32.938Z,83
2023-04-02T04:09:32.957Z,83
2023-04-02T04:10:32.997Z,83
2023-04-02T04:11:32.921Z,83
2023-04-02T04:12:32.992Z,83
2023-04-02T04:13:32.949Z,83
2023-04-02T04:14:32.958Z,83
2023-04-02T04:15:33.162Z,83
2023-04-02T04:16:33.007Z,83
2023-04-02T04:17:32.970Z,83
2023-04-02T04:18:32.941Z,83
2023-04-02T04:19:32.882Z,83
2023-04-02T04:20:32.975Z,83
2023-04-02T04:21:32.977Z,83
2023-04-02T04:22:32.941Z,83
2023-04-02T04:23:32.875Z,83
2023-04-02T04:24:32.964Z,83
2023-04-02T04:25:33.094Z,83
2023-04-02T04:26:32.924Z,83
2023-04-02T04:27:32.899Z,83
2023-04-02T04:28:32.924Z,83
2023-04-02T04:29:32.948Z,83
2023-04-02T04:30:32.988Z,82
2023-04-02T04:31:32.853Z,82
2023-04-02T04:32:32.996Z,82
2023-04-02T04:33:32.937Z,83
2023-04-02T04:34:32.943Z,83
2023-04-02T04:35:32.991Z,83
2023-04-02T04:36:32.965Z,83
2023-04-02T04:37:32.941Z,83
2023-04-02T04:38:33.046Z,83
2023-04-02T04:39:32.891Z,83
2023-04-02T04:40:32.979Z,83
2023-04-02T04:41:33.076Z,83
2023-04-02T04:42:32.940Z,83
2023-04-02T04:43:32.911Z,83
2023-04-02T04:44:32.962Z,83
2023-04-02T04:45:33.073Z,82
2023-04-02T04:46:32.958Z,82
2023-04-02T04:47:32.975Z,82
2023-04-02T04:48:34.533Z,82
2023-04-02T04:49:32.946Z,82
2023-04-02T04:50:32.941Z,82
2023-04-02T04:51:32.854Z,82
2023-04-02T04:52:32.964Z,82
2023-04-02T04:53:32.908Z,82
2023-04-02T04:54:32.930Z,81
2023-04-02T04:55:33.101Z,81
2023-04-02T04:56:32.994Z,81
2023-04-02T04:57:32.957Z,81
2023-04-02T04:58:32.946Z,80
2023-04-02T04:59:32.990Z,80
2023-04-02T05:00:32.951Z,80
2023-04-02T05:01:33.004Z,80
2023-04-02T05:02:32.991Z,79
2023-04-02T05:03:32.883Z,79
2023-04-02T05:04:32.982Z,79
2023-04-02T05:05:33.166Z,79
2023-04-02T05:06:32.955Z,79
2023-04-02T05:07:32.861Z,79
2023-04-02T05:08:32.999Z,79
2023-04-02T05:09:32.986Z,78
2023-04-02T05:10:32.948Z,78
2023-04-02T05:11:32.903Z,78
2023-04-02T05:12:32.961Z,78
2023-04-02T05:13:32.944Z,78
2023-04-02T05:14:32.988Z,78
2023-04-02T05:15:32.933Z,78
2023-04-02T05:16:33.006Z,78
2023-04-02T05:17:33.029Z,78
2023-04-02T05:18:32.937Z,78
2023-04-02T05:19:32.910Z,78
2023-04-02T05:20:32.957Z,78
2023-04-02T05:21:32.961Z,78
2023-04-02T05:22:32.927Z,78
2023-04-02T05:23:32.859Z,78
2023-04-02T05:24:32.979Z,78
2023-04-02T05:25:33.103Z,78
2023-04-02T05:26:32.952Z,78
2023-04-02T05:27:32.904Z,77
2023-04-02T05:28:32.956Z,77
2023-04-02T05:29:32.930Z,77
2023-04-02T05:30:32.927Z,77
2023-04-02T05:31:32.979Z,76
2023-04-02T05:32:32.998Z,76
2023-04-02T05:33:32.934Z,76
2023-04-02T05:34:33.037Z,76
2023-04-02T05:35:33.047Z,75
2023-04-02T05:36:32.951Z,75
2023-04-02T05:37:32.947Z,74
2023-04-02T05:38:32.934Z,74
2023-04-02T05:39:32.884Z,75
2023-04-02T05:40:32.946Z,75
2023-04-02T05:41:32.932Z,74
2023-04-02T05:42:32.937Z,74
2023-04-02T05:43:32.902Z,74
2023-04-02T05:44:32.931Z,75
2023-04-02T05:45:33.062Z,74
2023-04-02T05:46:32.959Z,75
2023-04-02T05:47:32.904Z,74
2023-04-02T05:48:32.951Z,74
2023-04-02T05:49:32.953Z,74
2023-04-02T05:50:32.943Z,73
2023-04-02T05:51:32.936Z,74
2023-04-02T05:52:32.936Z,74
2023-04-02T05:53:32.945Z,73
2023-04-02T05:54:32.953Z,73
2023-04-02T05:55:33.189Z,72
2023-04-02T05:56:32.930Z,72
2023-04-02T05:58:36.220Z,72
2023-04-02T05:59:32.903Z,72
2023-04-02T06:00:32.943Z,72
2023-04-02T06:01:32.912Z,71
2023-04-02T06:02:33.047Z,71
2023-04-02T06:03:33.003Z,71
2023-04-02T06:04:32.946Z,70
2023-04-02T06:05:32.925Z,70
2023-04-02T06:06:32.987Z,69
2023-04-02T06:07:32.847Z,70
2023-04-02T06:08:32.926Z,70
2023-04-02T06:09:32.959Z,70
2023-04-02T06:10:32.939Z,69
2023-04-02T06:11:32.869Z,69
2023-04-02T06:12:32.934Z,69
2023-04-02T06:13:32.908Z,68
2023-04-02T06:14:32.941Z,67
2023-04-02T06:15:33.123Z,67
2023-04-02T06:16:33.010Z,66
2023-04-02T06:17:33.008Z,66
2023-04-02T06:18:32.946Z,66
2023-04-02T06:19:32.884Z,66
2023-04-02T06:20:32.950Z,65
2023-04-02T06:21:32.936Z,64
2023-04-02T06:22:32.919Z,63
2023-04-02T06:23:32.872Z,63
2023-04-02T06:24:32.975Z,64
2023-04-02T06:25:32.931Z,63
2023-04-02T06:26:32.946Z,64
2023-04-02T06:27:32.808Z,64
2023-04-02T06:28:33.007Z,63
2023-04-02T06:29:32.903Z,64
2023-04-02T06:30:33.008Z,63
2023-04-02T06:31:32.865Z,62
2023-04-02T06:32:33.004Z,62
2023-04-02T06:33:32.937Z,64
2023-04-02T06:34:32.929Z,64
2023-04-02T06:35:32.909Z,64
2023-04-02T06:36:32.957Z,64
2023-04-02T06:37:32.998Z,64
2023-04-02T06:38:32.957Z,63
2023-04-02T06:39:32.834Z,63
2023-04-02T06:40:32.977Z,63
2023-04-02T06:41:32.932Z,63
2023-04-02T06:42:32.945Z,63
2023-04-02T06:43:32.841Z,63
2023-04-02T06:44:32.942Z,63
2023-04-02T06:45:33.068Z,63
2023-04-02T06:46:33.085Z,63
2023-04-02T06:47:32.866Z,62
2023-04-02T06:48:32.947Z,62
2023-04-02T06:49:32.919Z,62
2023-04-02T06:50:32.931Z,62
2023-04-02T06:51:32.842Z,62
2023-04-02T06:52:34.996Z,62
2023-04-02T06:53:32.923Z,62
2023-04-02T06:54:32.938Z,60
2023-04-02T06:55:32.937Z,60
2023-04-02T06:56:32.949Z,60
2023-04-02T06:57:32.976Z,60
2023-04-02T06:58:32.918Z,60
2023-04-02T06:59:32.815Z,59
2023-04-02T07:00:32.957Z,59
2023-04-02T07:01:32.967Z,59
2023-04-02T07:02:32.990Z,58
2023-04-02T07:03:32.823Z,57
2023-04-02T07:04:32.948Z,57
2023-04-02T07:05:33.155Z,58
2023-04-02T07:06:32.962Z,58
2023-04-02T07:07:32.827Z,58
2023-04-02T07:08:32.969Z,58
2023-04-02T07:09:32.944Z,58
2023-04-02T07:10:32.952Z,57
2023-04-02T07:11:32.858Z,57
2023-04-02T07:12:32.918Z,57
2023-04-02T07:13:32.930Z,57
2023-04-02T07:14:32.875Z,57
2023-04-02T07:15:32.941Z,57
2023-04-02T07:16:32.982Z,57
2023-04-02T07:17:32.953Z,58
2023-04-02T07:18:32.908Z,58
2023-04-02T07:19:32.832Z,58
2023-04-02T07:20:32.964Z,58
2023-04-02T07:21:32.936Z,58
2023-04-02T07:22:32.944Z,59
2023-04-02T07:23:32.842Z,59
2023-04-02T07:24:32.939Z,58
2023-04-02T07:25:33.085Z,58
2023-04-02T07:26:32.956Z,58
2023-04-02T07:27:32.835Z,58
2023-04-02T07:28:32.930Z,58
2023-04-02T07:29:32.945Z,57
2023-04-02T07:30:32.932Z,57
2023-04-02T07:31:33.024Z,56
2023-04-02T07:32:33.002Z,56
2023-04-02T07:33:32.913Z,56
2023-04-02T07:34:32.928Z,55
2023-04-02T07:35:33.014Z,54
2023-04-02T07:36:32.943Z,54
2023-04-02T07:37:32.928Z,54
2023-04-02T07:38:32.979Z,54
2023-04-02T07:39:34.188Z,53
2023-04-02T07:40:32.937Z,53
2023-04-02T07:41:32.952Z,53
2023-04-02T07:42:32.918Z,54
2023-04-02T07:43:32.787Z,54
2023-04-02T07:44:32.941Z,54
2023-04-02T07:45:33.080Z,53
2023-04-02T07:46:32.966Z,53
2023-04-02T07:47:32.762Z,54
2023-04-02T07:48:32.930Z,53
2023-04-02T07:49:32.907Z,55
2023-04-02T07:50:32.894Z,53
2023-04-02T07:51:32.818Z,54
2023-04-02T07:52:32.931Z,53
2023-04-02T07:53:32.944Z,53
2023-04-02T07:54:32.910Z,53
2023-04-02T07:55:32.981Z,54
2023-04-02T07:56:32.933Z,53
2023-04-02T07:57:32.985Z,52
2023-04-02T07:58:32.959Z,52
2023-04-02T07:59:32.918Z,52
2023-04-02T08:00:32.927Z,51
2023-04-02T08:01:32.950Z,52
2023-04-02T08:02:33.005Z,52
2023-04-02T08:03:33.147Z,52
2023-04-02T08:04:32.933Z,52
2023-04-02T08:05:32.947Z,52
2023-04-02T08:06:32.931Z,51
2023-04-02T08:07:32.763Z,52
2023-04-02T08:08:32.944Z,52
2023-04-02T08:09:32.934Z,52
2023-04-02T08:10:32.896Z,52
2023-04-02T08:11:32.785Z,51
2023-04-02T08:12:32.938Z,50
2023-04-02T08:13:32.909Z,51
2023-04-02T08:14:32.871Z,51
2023-04-02T08:15:33.073Z,51
2023-04-02T08:16:32.932Z,50
2023-04-02T08:17:32.963Z,51
2023-04-02T08:18:32.893Z,51
2023-04-02T08:19:35.091Z,51
2023-04-02T08:20:32.941Z,51
2023-04-02T08:21:32.950Z,51
2023-04-02T08:22:32.915Z,51
2023-04-02T08:23:32.768Z,52
2023-04-02T08:24:32.933Z,52
2023-04-02T08:25:33.255Z,51
2023-04-02T08:26:32.942Z,52
2023-04-02T08:27:32.774Z,51
2023-04-02T08:28:32.915Z,52
2023-04-02T08:29:32.925Z,52
2023-04-02T08:30:32.931Z,52
2023-04-02T08:31:32.737Z,51
2023-04-02T08:32:32.923Z,51
2023-04-02T08:33:32.932Z,51
2023-04-02T08:34:32.895Z,52
2023-04-02T08:35:32.684Z,50
2023-04-02T08:36:32.909Z,51
2023-04-02T08:37:32.937Z,50
2023-04-02T08:38:32.901Z,51
2023-04-02T08:39:32.708Z,51
2023-04-02T08:40:32.922Z,51
2023-04-02T08:41:33.024Z,51
2023-04-02T08:42:32.917Z,52
2023-04-02T08:43:32.703Z,52
2023-04-02T08:44:33.001Z,53
2023-04-02T08:45:32.929Z,53
2023-04-02T08:46:32.952Z,54
2023-04-02T08:47:32.792Z,55
2023-04-02T08:48:32.918Z,54
2023-04-02T08:49:32.902Z,55
2023-04-02T08:50:32.907Z,54
2023-04-02T08:51:32.700Z,55
2023-04-02T08:52:32.982Z,56
2023-04-02T08:53:32.928Z,57
2023-04-02T08:54:34.277Z,57
2023-04-02T08:55:32.970Z,57
2023-04-02T08:56:32.911Z,58
2023-04-02T08:57:33.057Z,58
2023-04-02T08:58:32.950Z,58
2023-04-02T08:59:32.731Z,58
2023-04-02T09:00:32.968Z,59
2023-04-02T09:01:32.997Z,58
2023-04-02T09:02:32.964Z,60
2023-04-02T09:03:32.698Z,59
2023-04-02T09:04:32.954Z,59
2023-04-02T09:05:33.143Z,59
2023-04-02T09:06:32.897Z,59
2023-04-02T09:07:32.673Z,58
2023-04-02T09:08:32.909Z,59
2023-04-02T09:09:32.930Z,58
2023-04-02T09:10:32.965Z,58
2023-04-02T09:11:32.699Z,59
2023-04-02T09:12:32.924Z,60
2023-04-02T09:13:32.977Z,60
2023-04-02T09:14:32.904Z,61
2023-04-02T09:15:32.721Z,62
2023-04-02T09:16:32.953Z,62
2023-04-02T09:17:39.729Z,62
2023-04-02T09:18:32.963Z,62
2023-04-02T09:19:32.668Z,61
2023-04-02T09:20:32.906Z,61
2023-04-02T09:21:32.934Z,61
2023-04-02T09:22:32.927Z,61
2023-04-02T09:23:32.643Z,61
2023-04-02T09:24:32.926Z,61
2023-04-02T09:25:33.035Z,60
2023-04-02T09:26:32.881Z,62
2023-04-02T09:27:32.669Z,62
2023-04-02T09:28:32.920Z,63
2023-04-02T09:29:32.910Z,63
2023-04-02T09:30:32.910Z,62
2023-04-02T09:31:32.747Z,63
2023-04-02T09:32:32.951Z,61
2023-04-02T09:33:32.917Z,62
2023-04-02T09:34:32.904Z,63
2023-04-02T09:35:32.686Z,63
2023-04-02T09:36:32.985Z,63
2023-04-02T09:37:32.933Z,64
2023-04-02T09:38:32.980Z,64
2023-04-02T09:39:32.668Z,64
2023-04-02T09:40:33.742Z,64
2023-04-02T09:42:32.932Z,62
2023-04-02T09:43:32.682Z,62
2023-04-02T09:44:32.916Z,61
2023-04-02T09:45:33.056Z,62
2023-04-02T09:46:32.958Z,63
2023-04-02T09:47:32.672Z,63
2023-04-02T09:48:32.903Z,63
2023-04-02T09:49:32.931Z,64
2023-04-02T09:50:32.897Z,63
2023-04-02T09:51:32.627Z,63
2023-04-02T09:52:32.915Z,63
2023-04-02T09:53:32.912Z,62
2023-04-02T09:54:32.928Z,62
2023-04-02T09:55:32.630Z,62
2023-04-02T09:56:32.914Z,62
2023-04-02T09:57:32.967Z,62
2023-04-02T09:58:32.914Z,61
2023-04-02T09:59:32.638Z,61
2023-04-02T10:00:32.972Z,61
2023-04-02T10:01:33.071Z,60
2023-04-02T10:02:32.997Z,62
2023-04-02T10:03:32.626Z,60
2023-04-02T10:04:32.905Z,61
2023-04-02T10:05:40.591Z,60
2023-04-02T10:06:32.970Z,61
2023-04-02T10:07:32.641Z,61
2023-04-02T10:08:32.946Z,60
2023-04-02T10:09:32.899Z,59
2023-04-02T10:10:32.965Z,60
2023-04-02T10:11:43.649Z,60
2023-04-02T10:12:32.925Z,59
2023-04-02T10:13:32.942Z,59
2023-04-02T10:14:32.935Z,60
2023-04-02T10:15:32.584Z,60
2023-04-02T10:16:33.167Z,59
2023-04-02T10:17:32.943Z,59
2023-04-02T10:18:32.919Z,58
2023-04-02T10:19:32.638Z,57
2023-04-02T10:21:32.916Z,57
2023-04-02T10:22:32.906Z,58
2023-04-02T10:23:32.548Z,58
2023-04-02T10:24:32.934Z,59
2023-04-02T10:25:33.024Z,58
2023-04-02T10:26:32.907Z,58
2023-04-02T10:27:32.530Z,56
2023-04-02T10:28:32.925Z,56
2023-04-02T10:29:32.988Z,55
2023-04-02T10:30:32.957Z,54
2023-04-02T10:31:32.608Z,54
2023-04-02T10:32:32.936Z,55
2023-04-02T10:33:32.954Z,54
2023-04-02T10:34:32.917Z,54
2023-04-02T10:35:32.613Z,53
2023-04-02T10:36:32.979Z,53
2023-04-02T10:37:32.946Z,54
2023-04-02T10:38:32.908Z,51
2023-04-02T10:39:32.609Z,51
2023-04-02T10:40:32.993Z,50
2023-04-02T10:41:32.894Z,50
2023-04-02T10:42:32.912Z,49
2023-04-02T10:43:32.561Z,49
2023-04-02T10:44:32.911Z,50
2023-04-02T10:45:32.964Z,50
2023-04-02T10:46:33.011Z,50
2023-04-02T10:47:32.570Z,50
2023-04-02T10:48:32.925Z,51
2023-04-02T10:49:32.949Z,46
2023-04-02T10:50:32.915Z,48
2023-04-02T10:51:32.547Z,48
2023-04-02T10:52:32.921Z,48
2023-04-02T10:53:32.918Z,47
2023-04-02T10:54:32.906Z,46
2023-04-02T10:55:32.627Z,45
2023-04-02T10:56:44.199Z,45
2023-04-02T10:57:33.011Z,45
2023-04-02T10:58:32.885Z,45
2023-04-02T10:59:32.501Z,45
2023-04-02T11:00:32.911Z,44
2023-04-02T11:01:32.965Z,45
2023-04-02T11:02:33.015Z,45
2023-04-02T11:03:32.601Z,44
2023-04-02T11:04:32.940Z,43
2023-04-02T11:05:32.957Z,44
2023-04-02T11:06:32.917Z,43
2023-04-02T11:07:32.529Z,42
2023-04-02T11:08:32.930Z,43
2023-04-02T11:09:32.903Z,41
2023-04-02T11:10:32.919Z,42
2023-04-02T11:11:32.562Z,42
2023-04-02T11:12:32.897Z,41
2023-04-02T11:13:32.910Z,40
2023-04-02T11:14:32.932Z,40
2023-04-02T11:15:32.542Z,39
2023-04-02T11:16:33.042Z,38
2023-04-02T11:17:32.930Z,39
2023-04-02T11:18:32.901Z,38
2023-04-02T11:19:32.578Z,38
2023-04-02T11:20:32.889Z,37
2023-04-02T11:21:32.888Z,39
2023-04-02T11:22:32.901Z,39
2023-04-02T11:23:32.494Z,40
2023-04-02T11:24:33.054Z,41
2023-04-02T11:25:33.064Z,41
2023-04-02T11:26:32.893Z,41
2023-04-02T11:27:32.492Z,41
2023-04-02T11:28:32.918Z,41
2023-04-02T11:29:32.903Z,40
2023-04-02T11:30:32.935Z,40
2023-04-02T11:31:32.568Z,40
2023-04-02T11:32:32.953Z,40
2023-04-02T11:33:38.421Z,42
2023-04-02T11:34:32.899Z,42
2023-04-02T11:35:32.532Z,43
2023-04-02T11:36:32.933Z,41
2023-04-02T11:37:32.876Z,43
2023-04-02T11:38:32.880Z,42
2023-04-02T11:39:32.498Z,41
2023-04-02T11:40:32.939Z,41
2023-04-02T11:41:32.941Z,42
2023-04-02T11:42:32.948Z,43
2023-04-02T11:43:32.624Z,42
2023-04-02T11:44:32.924Z,43
2023-04-02T11:45:40.206Z,43
2023-04-02T11:46:32.920Z,43
2023-04-02T11:47:32.446Z,44
2023-04-02T11:48:32.907Z,45
2023-04-02T11:49:32.884Z,43
2023-04-02T11:50:32.916Z,42
2023-04-02T11:51:32.557Z,42
2023-04-02T11:52:32.921Z,42
2023-04-02T11:53:32.924Z,41
2023-04-02T11:54:32.894Z,41
2023-04-02T11:55:32.504Z,42
2023-04-02T11:56:32.905Z,42
2023-04-02T11:57:32.920Z,43
2023-04-02T11:58:32.884Z,44
2023-04-02T11:59:32.479Z,43
2023-04-02T12:00:33.010Z,43
2023-04-02T12:01:32.904Z,43
2023-04-02T12:02:33.029Z,43
2023-04-02T12:03:32.496Z,43
2023-04-02T12:04:32.936Z,42
2023-04-02T12:05:33.040Z,42
2023-04-02T12:06:32.914Z,43
2023-04-02T12:07:32.493Z,43
2023-04-02T12:08:32.904Z,43
2023-04-02T12:09:32.896Z,43
2023-04-02T12:10:32.924Z,44
2023-04-02T12:11:32.481Z,43
2023-04-02T12:12:32.926Z,42
2023-04-02T12:13:32.923Z,44
2023-04-02T12:14:32.884Z,42
2023-04-02T12:15:32.514Z,42
2023-04-02T12:16:32.956Z,44
2023-04-02T12:17:32.931Z,43
2023-04-02T12:18:32.885Z,43
2023-04-02T12:19:32.412Z,44
2023-04-02T12:20:32.876Z,44
2023-04-02T12:21:32.897Z,45
2023-04-02T12:22:32.924Z,45
2023-04-02T12:23:32.432Z,45
2023-04-02T12:24:32.910Z,45
2023-04-02T12:25:32.936Z,45
2023-04-02T12:26:32.947Z,44
2023-04-02T12:27:32.416Z,43
2023-04-02T12:28:32.940Z,43
2023-04-02T12:29:33.004Z,42
2023-04-02T12:30:33.068Z,44
2023-04-02T12:31:32.500Z,44
2023-04-02T12:32:32.911Z,43
2023-04-02T12:33:32.872Z,44
2023-04-02T12:34:32.913Z,44
2023-04-02T12:35:32.468Z,44
2023-04-02T12:36:32.890Z,43
2023-04-02T12:37:32.912Z,43
2023-04-02T12:38:32.893Z,43
2023-04-02T12:39:32.501Z,43
2023-04-02T12:40:32.910Z,43
2023-04-02T12:41:32.910Z,43
2023-04-02T12:42:32.916Z,44
2023-04-02T12:43:32.417Z,42
2023-04-02T12:44:32.888Z,42
2023-04-02T12:45:32.942Z,42
2023-04-02T12:46:32.965Z,43
2023-04-02T12:47:32.446Z,44
2023-04-02T12:48:32.939Z,42
2023-04-02T12:49:32.922Z,44
2023-04-02T12:50:32.938Z,43
2023-04-02T12:51:32.379Z,43
2023-04-02T12:52:32.893Z,44
2023-04-02T12:53:32.882Z,43
2023-04-02T12:54:32.940Z,43
2023-04-02T12:55:32.406Z,43
2023-04-02T12:56:32.898Z,44
2023-04-02T12:57:32.966Z,43
2023-04-02T12:58:32.894Z,43
2023-04-02T12:59:32.400Z,42
2023-04-02T13:00:33.097Z,40
2023-04-02T13:01:32.945Z,41
2023-04-02T13:02:32.980Z,42
2023-04-02T13:03:32.381Z,43
2023-04-02T13:04:32.898Z,43
2023-04-02T13:05:32.968Z,42
2023-04-02T13:06:32.881Z,42
2023-04-02T13:07:32.345Z,42
2023-04-02T13:08:32.907Z,42
2023-04-02T13:09:32.925Z,41
2023-04-02T13:10:32.896Z,41
2023-04-02T13:11:32.361Z,43
2023-04-02T13:12:32.901Z,44
2023-04-02T13:13:32.928Z,44
2023-04-02T13:14:32.849Z,43
2023-04-02T13:15:32.454Z,43
2023-04-02T13:16:32.949Z,43
2023-04-02T13:17:32.937Z,44
2023-04-02T13:18:32.887Z,42
2023-04-02T13:19:32.368Z,43
2023-04-02T13:20:32.925Z,43
2023-04-02T13:21:32.883Z,44
2023-04-02T13:22:32.873Z,44
2023-04-02T13:23:32.352Z,43
2023-04-02T13:24:32.892Z,43
2023-04-02T13:25:32.904Z,43
2023-04-02T13:26:32.877Z,42
2023-04-02T13:27:32.374Z,42
2023-04-02T13:28:32.942Z,43
2023-04-02T13:29:32.886Z,43
2023-04-02T13:30:32.929Z,43
2023-04-02T13:31:33.679Z,43
2023-04-02T13:32:36.451Z,43
2023-04-02T13:33:40.351Z,44
2023-04-02T13:34:44.353Z,45
2023-04-02T13:35:48.451Z,44
2023-04-02T13:36:52.359Z,44
2023-04-02T13:37:56.520Z,44
2023-04-02T13:39:00.431Z,44
2023-04-02T13:40:04.658Z,43
2023-04-02T13:41:08.379Z,40
2023-04-02T13:42:12.334Z,41
2023-04-02T13:43:16.340Z,43
2023-04-02T13:44:20.397Z,42
2023-04-02T13:45:24.363Z,44
2023-04-02T13:46:28.326Z,43
2023-04-02T13:47:32.364Z,42
2023-04-02T13:48:32.895Z,42
2023-04-02T13:49:32.902Z,42
2023-04-02T13:50:32.912Z,42
2023-04-02T13:51:32.341Z,41
2023-04-02T13:52:32.874Z,42
2023-04-02T13:53:32.897Z,41
2023-04-02T13:54:32.879Z,41
2023-04-02T13:55:32.302Z,40
2023-04-02T13:56:32.883Z,40
2023-04-02T13:57:33.000Z,40
2023-04-02T13:58:32.897Z,39
2023-04-02T13:59:32.344Z,40
2023-04-02T14:00:33.116Z,40
2023-04-02T14:01:32.961Z,39
2023-04-02T14:02:32.889Z,40
2023-04-02T14:03:32.318Z,41
2023-04-02T14:04:32.929Z,42
2023-04-02T14:05:32.897Z,42
2023-04-02T14:06:32.874Z,42
2023-04-02T14:07:32.282Z,43
2023-04-02T14:08:32.878Z,43
2023-04-02T14:09:32.961Z,43
2023-04-02T14:10:32.886Z,43
2023-04-02T14:11:32.304Z,44
2023-04-02T14:12:32.913Z,44
2023-04-02T14:13:32.902Z,43
2023-04-02T14:14:32.860Z,43
2023-04-02T14:15:32.302Z,43
2023-04-02T14:16:32.926Z,42
2023-04-02T14:17:32.910Z,42
2023-04-02T14:18:32.909Z,44
2023-04-02T14:19:32.359Z,42